createdAt,value
2018-10-03T00:01:51.697Z,101112.50
2018-10-03T00:04:20.170Z,101120.80
2018-10-03T00:06:48.665Z,101126.26
2018-10-03T00:09:17.231Z,101119.46
2018-10-03T00:11:45.708Z,101118.16
2018-10-03T00:14:14.197Z,101111.84
2018-10-03T00:16:42.757Z,101107.09
2018-10-03T00:19:11.254Z,101116.81
2018-10-03T00:21:39.818Z,101119.36
2018-10-03T00:24:08.350Z,101120.50
2018-10-03T00:26:36.906Z,101111.59
2018-10-03T00:29:05.375Z,101109.09
2018-10-03T00:31:33.865Z,101102.65
2018-10-03T00:34:02.406Z,101102.89
2018-10-03T00:36:30.894Z,101102.65
2018-10-03T00:38:59.371Z,101105.62
2018-10-03T00:41:27.863Z,101107.64
2018-10-03T00:43:56.315Z,101111.92
2018-10-03T00:46:24.814Z,101100.02
2018-10-03T00:48:53.353Z,101095.41
2018-10-03T00:51:21.888Z,101106.98
2018-10-03T00:53:50.450Z,101110.78
2018-10-03T00:56:19.028Z,101110.28
2018-10-03T00:58:47.517Z,101104.34
2018-10-03T01:01:16.015Z,101109.58
2018-10-03T01:03:44.505Z,101111.59
2018-10-03T01:06:12.999Z,101115.56
2018-10-03T01:08:41.579Z,101118.87
2018-10-03T01:11:10.061Z,101119.20
2018-10-03T01:13:38.593Z,101130.75
2018-10-03T01:16:07.102Z,101135.70
2018-10-03T01:18:35.631Z,101137.02
2018-10-03T01:21:04.134Z,101132.08
2018-10-03T01:23:32.616Z,101125.13
2018-10-03T01:26:01.157Z,101122.83
2018-10-03T01:28:29.697Z,101126.13
2018-10-03T01:30:58.238Z,101131.72
2018-10-03T01:33:26.744Z,101129.91
2018-10-03T01:35:55.301Z,101129.84
2018-10-03T01:38:23.897Z,101132.84
2018-10-03T01:40:52.298Z,101138.44
2018-10-03T01:43:20.856Z,101140.90
2018-10-03T01:45:49.395Z,101138.13
2018-10-03T01:48:17.900Z,101134.77
2018-10-03T01:50:46.385Z,101139.86
2018-10-03T01:53:14.907Z,101139.08
2018-10-03T01:55:43.438Z,101148.16
2018-10-03T01:58:11.962Z,101148.69
2018-10-03T02:00:40.457Z,101150.52
2018-10-03T02:03:08.961Z,101157.77
2018-10-03T02:05:37.476Z,101158.31
2018-10-03T02:08:05.997Z,101159.93
2018-10-03T02:10:34.507Z,101158.43
2018-10-03T02:13:02.963Z,101167.95
2018-10-03T02:15:31.473Z,101167.80
2018-10-03T02:18:00.014Z,101167.29
2018-10-03T02:20:28.550Z,101173.91
2018-10-03T02:22:57.079Z,101182.48
2018-10-03T02:25:25.570Z,101179.19
2018-10-03T02:27:54.041Z,101170.78
2018-10-03T02:30:22.518Z,101174.56
2018-10-03T02:32:51.034Z,101176.91
2018-10-03T02:35:19.530Z,101175.23
2018-10-03T02:37:48.021Z,101182.98
2018-10-03T02:40:16.509Z,101186.41
2018-10-03T02:42:44.999Z,101186.23
2018-10-03T02:45:13.526Z,101192.52
2018-10-03T02:47:42.013Z,101202.73
2018-10-03T02:50:10.501Z,101206.20
2018-10-03T02:52:39.085Z,101207.17
2018-10-03T02:55:07.595Z,101212.93
2018-10-03T02:57:36.102Z,101219.87
2018-10-03T03:00:04.698Z,101211.91
2018-10-03T03:02:33.243Z,101211.61
2018-10-03T03:05:01.712Z,101213.27
2018-10-03T03:07:30.257Z,101218.58
2018-10-03T03:09:58.814Z,101212.81
2018-10-03T03:12:27.305Z,101222.07
2018-10-03T03:14:55.889Z,101211.03
2018-10-03T03:17:24.361Z,101208.44
2018-10-03T03:19:52.905Z,101214.44
2018-10-03T03:22:21.379Z,101216.66
2018-10-03T03:24:50.050Z,101219.59
2018-10-03T03:27:18.625Z,101213.19
2018-10-03T03:29:47.138Z,101217.98
2018-10-03T03:32:15.622Z,101220.70
2018-10-03T03:34:44.085Z,101224.63
2018-10-03T03:37:12.611Z,101221.84
2018-10-03T03:39:41.070Z,101218.92
2018-10-03T03:42:09.640Z,101222.19
2018-10-03T03:44:38.199Z,101225.52
2018-10-03T03:47:07.013Z,101236.58
2018-10-03T03:49:35.475Z,101241.86
2018-10-03T03:52:04.119Z,101243.65
2018-10-03T03:54:32.640Z,101252.20
2018-10-03T03:57:01.085Z,101242.75
2018-10-03T03:59:29.593Z,101239.89
2018-10-03T04:01:58.129Z,101254.94
2018-10-03T04:04:27.558Z,101258.41
2018-10-03T04:06:56.688Z,101258.59
2018-10-03T04:09:25.281Z,101259.87
2018-10-03T04:11:53.833Z,101261.02
2018-10-03T04:14:22.336Z,101266.64
2018-10-03T04:16:50.901Z,101265.67
2018-10-03T04:19:19.409Z,101268.98
2018-10-03T04:21:47.978Z,101271.48
2018-10-03T04:24:16.496Z,101275.09
2018-10-03T04:26:44.997Z,101277.25
2018-10-03T04:29:13.521Z,101285.34
2018-10-03T04:31:42.002Z,101291.25
2018-10-03T04:34:10.601Z,101286.45
2018-10-03T04:36:39.086Z,101297.50
2018-10-03T04:39:08.273Z,101300.48
2018-10-03T04:41:37.353Z,101297.50
2018-10-03T04:44:05.906Z,101303.93
2018-10-03T04:46:34.493Z,101316.64
2018-10-03T04:49:03.069Z,101317.66
2018-10-03T04:51:31.525Z,101316.64
2018-10-03T04:54:00.050Z,101321.13
2018-10-03T04:56:28.564Z,101325.05
2018-10-03T04:58:57.166Z,101319.28
2018-10-03T05:01:25.733Z,101314.31
2018-10-03T05:03:54.205Z,101326.52
2018-10-03T05:06:22.961Z,101331.13
2018-10-03T05:08:52.065Z,101331.17
2018-10-03T05:11:20.652Z,101343.37
2018-10-03T05:13:49.202Z,101335.79
2018-10-03T05:16:17.795Z,101351.00
2018-10-03T05:18:46.462Z,101349.36
2018-10-03T05:21:15.011Z,101348.03
2018-10-03T05:23:43.526Z,101354.95
2018-10-03T05:26:12.037Z,101355.63
2018-10-03T05:28:40.597Z,101360.59
2018-10-03T05:31:09.126Z,101360.59
2018-10-03T05:33:37.970Z,101358.92
2018-10-03T05:36:06.654Z,101371.43
2018-10-03T05:38:35.190Z,101369.63
2018-10-03T05:41:03.689Z,101378.72
2018-10-03T05:43:32.208Z,101385.15
2018-10-03T05:46:00.718Z,101385.48
2018-10-03T05:48:29.235Z,101385.48
2018-10-03T05:50:57.737Z,101390.91
2018-10-03T05:53:26.257Z,101386.28
2018-10-03T05:55:54.818Z,101395.20
2018-10-03T05:58:23.304Z,101399.16
2018-10-03T06:00:52.364Z,101397.98
2018-10-03T06:03:21.174Z,101402.13
2018-10-03T06:05:49.666Z,101401.97
2018-10-03T06:08:18.173Z,101396.35
2018-10-03T06:10:46.788Z,101410.52
2018-10-03T06:13:15.326Z,101415.32
2018-10-03T06:15:43.994Z,101420.42
2018-10-03T06:18:12.551Z,101420.28
2018-10-03T06:20:41.050Z,101428.02
2018-10-03T06:23:09.538Z,101430.00
2018-10-03T06:25:38.091Z,101436.41
2018-10-03T06:28:06.637Z,101443.19
2018-10-03T06:30:35.239Z,101446.98
2018-10-03T06:33:03.746Z,101451.30
2018-10-03T06:35:32.285Z,101448.80
2018-10-03T06:38:00.799Z,101454.75
2018-10-03T06:40:29.386Z,101459.71
2018-10-03T06:42:57.862Z,101463.85
2018-10-03T06:45:26.348Z,101465.15
2018-10-03T06:47:54.874Z,101466.15
2018-10-03T06:50:23.411Z,101477.55
2018-10-03T06:52:51.921Z,101475.39
2018-10-03T06:55:20.449Z,101476.39
2018-10-03T06:57:48.926Z,101482.49
2018-10-03T07:00:17.489Z,101490.25
2018-10-03T07:02:46.127Z,101500.14
2018-10-03T07:05:14.680Z,101502.48
2018-10-03T07:07:43.175Z,101512.06
2018-10-03T07:10:11.682Z,101522.30
2018-10-03T07:12:40.179Z,101525.44
2018-10-03T07:15:09.591Z,101521.65
2018-10-03T07:17:38.351Z,101523.29
2018-10-03T07:20:06.899Z,101526.89
2018-10-03T07:22:35.462Z,101526.54
2018-10-03T07:25:04.490Z,101537.89
2018-10-03T07:27:39.633Z,101540.98
2018-10-03T07:30:08.326Z,101552.75
2018-10-03T07:32:36.873Z,101552.66
2018-10-03T07:35:05.378Z,101553.33
2018-10-03T07:37:33.891Z,101557.47
2018-10-03T07:40:02.411Z,101551.83
2018-10-03T07:42:31.784Z,101562.52
2018-10-03T07:45:00.311Z,101565.83
2018-10-03T07:47:28.803Z,101574.46
2018-10-03T07:49:57.305Z,101588.91
2018-10-03T07:52:26.511Z,101586.06
2018-10-03T07:54:55.042Z,101590.03
2018-10-03T07:57:23.873Z,101599.78
2018-10-03T07:59:52.342Z,101600.92
2018-10-03T08:02:20.883Z,101609.13
2018-10-03T08:04:49.353Z,101614.05
2018-10-03T08:07:18.492Z,101616.15
2018-10-03T08:09:46.973Z,101613.75
2018-10-03T08:12:15.554Z,101617.60
2018-10-03T08:14:45.386Z,101620.53
2018-10-03T08:17:13.937Z,101618.81
2018-10-03T08:19:42.521Z,101627.91
2018-10-03T08:22:11.046Z,101629.81
2018-10-03T08:24:39.620Z,101632.52
2018-10-03T08:27:08.179Z,101638.17
2018-10-03T08:29:36.705Z,101630.59
2018-10-03T08:32:05.174Z,101635.61
2018-10-03T08:34:33.708Z,101638.77
2018-10-03T08:37:02.490Z,101649.17
2018-10-03T08:39:31.035Z,101646.54
2018-10-03T08:41:59.678Z,101652.76
2018-10-03T08:44:28.187Z,101660.96
2018-10-03T08:46:56.707Z,101667.13
2018-10-03T08:49:25.305Z,101680.16
2018-10-03T08:51:53.880Z,101681.67
2018-10-03T08:54:22.297Z,101681.13
2018-10-03T08:56:50.798Z,101687.68
2018-10-03T08:59:19.293Z,101693.67
2018-10-03T09:01:47.881Z,101684.39
2018-10-03T09:04:16.466Z,101700.17
2018-10-03T09:06:45.039Z,101707.55
2018-10-03T09:09:13.692Z,101709.64
2018-10-03T09:11:42.318Z,101714.70
2018-10-03T09:14:11.174Z,101717.32
2018-10-03T09:16:39.785Z,101720.02
2018-10-03T09:19:08.517Z,101722.88
2018-10-03T09:21:37.027Z,101729.83
2018-10-03T09:24:05.627Z,101714.83
2018-10-03T09:26:34.167Z,101716.44
2018-10-03T09:29:02.701Z,101712.91
2018-10-03T09:31:31.560Z,101718.13
2018-10-03T09:34:00.062Z,101724.39
2018-10-03T09:36:28.650Z,101725.73
2018-10-03T09:38:57.317Z,101723.08
2018-10-03T09:41:25.813Z,101731.98
2018-10-03T09:43:54.485Z,101733.09
2018-10-03T09:46:23.073Z,101732.23
2018-10-03T09:48:51.571Z,101741.38
2018-10-03T09:51:20.157Z,101736.64
2018-10-03T09:53:48.649Z,101738.37
2018-10-03T09:56:17.209Z,101757.14
2018-10-03T09:58:45.678Z,101750.04
2018-10-03T10:01:20.061Z,101751.37
2018-10-03T10:03:48.550Z,101753.48
2018-10-03T10:06:17.026Z,101755.91
2018-10-03T10:08:45.563Z,101748.37
2018-10-03T10:11:14.072Z,101763.74
2018-10-03T10:13:42.758Z,101767.09
2018-10-03T10:16:11.321Z,101749.80
2018-10-03T10:18:39.928Z,101767.23
2018-10-03T10:21:08.421Z,101769.68
2018-10-03T10:23:36.973Z,101774.31
2018-10-03T10:26:05.677Z,101779.33
2018-10-03T10:28:34.267Z,101780.65
2018-10-03T10:31:02.770Z,101787.83
2018-10-03T10:33:31.362Z,101784.72
2018-10-03T10:35:59.854Z,101791.56
2018-10-03T10:38:28.799Z,101794.39
2018-10-03T10:40:57.424Z,101798.55
2018-10-03T10:43:26.021Z,101806.60
2018-10-03T10:45:54.511Z,101816.23
2018-10-03T10:48:22.973Z,101813.53
2018-10-03T10:50:51.494Z,101818.50
2018-10-03T10:53:20.038Z,101813.19
2018-10-03T10:55:48.569Z,101812.52
2018-10-03T10:58:17.054Z,101829.60
2018-10-03T11:00:45.626Z,101809.72
2018-10-03T11:03:14.133Z,101813.28
2018-10-03T11:05:42.683Z,101826.20
2018-10-03T11:08:11.269Z,101817.41
2018-10-03T11:10:39.847Z,101816.96
2018-10-03T11:13:08.421Z,101817.01
2018-10-03T11:15:36.955Z,101811.08
2018-10-03T11:18:05.483Z,101811.28
2018-10-03T11:20:34.546Z,101821.16
2018-10-03T11:23:03.075Z,101820.91
2018-10-03T11:25:31.595Z,101826.30
2018-10-03T11:29:03.277Z,101827.03
2018-10-03T11:31:32.085Z,101818.80
2018-10-03T11:34:00.606Z,101826.92
2018-10-03T11:36:29.150Z,101835.52
2018-10-03T11:38:57.666Z,101832.11
2018-10-03T11:41:26.264Z,101822.95
2018-10-03T11:43:54.817Z,101827.96
2018-10-03T11:46:23.353Z,101823.31
2018-10-03T11:48:51.930Z,101810.89
2018-10-03T11:51:20.475Z,101813.69
2018-10-03T11:53:49.053Z,101814.27
2018-10-03T11:56:17.529Z,101823.72
2018-10-03T11:58:46.106Z,101817.16
2018-10-03T12:01:14.601Z,101821.31
2018-10-03T12:03:43.125Z,101819.92
2018-10-03T12:06:11.626Z,101825.88
2018-10-03T12:08:40.149Z,101829.69
2018-10-03T12:11:09.575Z,101815.55
2018-10-03T12:13:38.110Z,101820.46
2018-10-03T12:16:06.567Z,101827.91
2018-10-03T12:18:35.078Z,101823.53
2018-10-03T12:21:03.587Z,101825.34
2018-10-03T12:23:32.078Z,101821.52
2018-10-03T12:26:00.618Z,101825.50
2018-10-03T12:28:29.174Z,101832.98
2018-10-03T12:30:57.639Z,101830.82
2018-10-03T12:33:32.817Z,101831.95
2018-10-03T12:36:01.292Z,101836.64
2018-10-03T12:38:29.774Z,101830.97
2018-10-03T12:40:58.262Z,101836.13
2018-10-03T12:43:26.739Z,101840.09
2018-10-03T12:45:55.277Z,101837.66
2018-10-03T12:48:24.486Z,101840.05
2018-10-03T12:50:53.038Z,101851.95
2018-10-03T12:53:21.634Z,101850.71
2018-10-03T12:55:50.155Z,101851.82
2018-10-03T12:58:18.671Z,101842.41
2018-10-03T13:00:53.672Z,101841.20
2018-10-03T13:03:22.137Z,101831.72
2018-10-03T13:05:50.649Z,101830.97
2018-10-03T13:08:19.179Z,101844.58
2018-10-03T13:10:47.723Z,101846.66
2018-10-03T13:13:16.282Z,101835.47
2018-10-03T13:15:44.918Z,101846.77
2018-10-03T13:18:13.485Z,101847.41
2018-10-03T13:20:41.998Z,101850.48
2018-10-03T13:23:10.535Z,101849.97
2018-10-03T13:25:39.039Z,101854.95
2018-10-03T13:28:07.591Z,101846.30
2018-10-03T13:30:36.138Z,101854.06
2018-10-03T13:33:04.660Z,101855.23
2018-10-03T13:35:33.167Z,101854.44
2018-10-03T13:38:01.735Z,101857.41
2018-10-03T13:40:30.228Z,101857.00
2018-10-03T13:43:05.453Z,101856.20
2018-10-03T13:45:33.950Z,101860.42
2018-10-03T13:48:02.455Z,101853.70
2018-10-03T13:50:30.968Z,101857.34
2018-10-03T13:52:59.497Z,101854.41
2018-10-03T13:55:28.032Z,101847.59
2018-10-03T13:57:56.569Z,101842.71
2018-10-03T14:00:25.295Z,101841.77
2018-10-03T14:02:53.814Z,101859.88
2018-10-03T14:05:22.294Z,101850.64
2018-10-03T14:07:50.996Z,101857.77
2018-10-03T14:10:19.474Z,101862.44
2018-10-03T14:12:47.982Z,101850.39
2018-10-03T14:15:16.554Z,101844.30
2018-10-03T14:17:45.110Z,101843.09
2018-10-03T14:20:13.715Z,101845.27
2018-10-03T14:22:42.273Z,101844.55
2018-10-03T14:25:10.734Z,101846.06
2018-10-03T14:27:39.311Z,101855.27
2018-10-03T14:30:07.914Z,101854.94
2018-10-03T14:32:36.381Z,101862.89
2018-10-03T14:35:05.048Z,101857.27
2018-10-03T14:37:33.882Z,101857.83
2018-10-03T14:40:02.466Z,101850.66
2018-10-03T14:42:30.954Z,101849.50
2018-10-03T14:44:59.551Z,101848.16
2018-10-03T14:47:28.037Z,101845.14
2018-10-03T14:49:56.490Z,101845.33
2018-10-03T14:52:25.021Z,101841.79
2018-10-03T14:54:53.549Z,101851.23
2018-10-03T14:57:22.049Z,101852.32
2018-10-03T14:59:50.532Z,101849.61
2018-10-03T15:02:19.122Z,101845.05
2018-10-03T15:04:47.663Z,101838.94
2018-10-03T15:07:16.261Z,101836.87
2018-10-03T15:09:44.882Z,101840.80
2018-10-03T15:12:13.482Z,101852.70
2018-10-03T15:14:41.983Z,101850.09
2018-10-03T15:17:10.638Z,101853.64
2018-10-03T15:19:39.752Z,101857.80
2018-10-03T15:22:08.419Z,101852.92
2018-10-03T15:24:36.976Z,101860.64
2018-10-03T15:27:05.560Z,101861.94
2018-10-03T15:29:34.148Z,101854.55
2018-10-03T15:32:02.699Z,101851.86
2018-10-03T15:34:31.301Z,101852.70
2018-10-03T15:36:59.905Z,101841.41
2018-10-03T15:39:28.480Z,101846.11
2018-10-03T15:41:56.995Z,101845.33
2018-10-03T15:44:25.515Z,101852.44
2018-10-03T15:46:54.206Z,101857.48
2018-10-03T15:49:22.690Z,101845.23
2018-10-03T15:51:51.188Z,101848.90
2018-10-03T15:54:19.701Z,101860.22
2018-10-03T15:56:48.325Z,101862.31
2018-10-03T15:59:23.436Z,101855.58
2018-10-03T16:01:51.985Z,101861.08
2018-10-03T16:04:20.545Z,101859.34
2018-10-03T16:06:49.056Z,101860.67
2018-10-03T16:09:17.575Z,101865.25
2018-10-03T16:11:46.118Z,101864.88
2018-10-03T16:14:14.614Z,101866.84
2018-10-03T16:16:43.160Z,101865.81
2018-10-03T16:19:11.769Z,101871.70
2018-10-03T16:21:40.340Z,101880.00
2018-10-03T16:24:08.829Z,101881.72
2018-10-03T16:26:37.480Z,101876.78
2018-10-03T16:29:06.770Z,101885.65
2018-10-03T16:31:35.317Z,101889.83
2018-10-03T16:34:03.826Z,101890.55
2018-10-03T16:36:32.449Z,101891.74
2018-10-03T16:39:01.241Z,101902.08
2018-10-03T16:41:29.559Z,101902.43
2018-10-03T16:43:58.103Z,101908.42
2018-10-03T16:46:26.770Z,101908.92
2018-10-03T16:48:55.298Z,101905.08
2018-10-03T16:51:23.863Z,101916.49
2018-10-03T16:53:52.349Z,101920.81
2018-10-03T16:56:20.966Z,101922.14
2018-10-03T16:58:49.475Z,101921.34
2018-10-03T17:01:18.013Z,101928.14
2018-10-03T17:03:46.601Z,101924.50
2018-10-03T17:06:15.226Z,101928.02
2018-10-03T17:08:43.789Z,101927.00
2018-10-03T17:11:12.285Z,101931.31
2018-10-03T17:14:44.266Z,101930.00
2018-10-03T17:17:12.794Z,101928.33
2018-10-03T17:19:41.412Z,101926.34
2018-10-03T17:22:10.158Z,101923.20
2018-10-03T17:24:39.205Z,101931.64
2018-10-03T17:27:07.811Z,101936.94
2018-10-03T17:29:36.343Z,101929.34
2018-10-03T17:32:04.858Z,101926.34
2018-10-03T17:34:33.961Z,101929.97
2018-10-03T17:37:02.548Z,101928.64
2018-10-03T17:39:31.082Z,101929.48
2018-10-03T17:41:59.808Z,101935.13
2018-10-03T17:44:31.521Z,101934.95
2018-10-03T17:48:24.534Z,101933.62
2018-10-03T17:50:53.102Z,101941.11
2018-10-03T17:53:21.648Z,101940.59
2018-10-03T17:55:50.445Z,101938.77
2018-10-03T17:58:19.037Z,101940.60
2018-10-03T18:00:47.542Z,101938.61
2018-10-03T18:03:16.190Z,101943.75
2018-10-03T18:05:44.755Z,101943.91
2018-10-03T18:08:14.054Z,101944.58
2018-10-03T18:10:42.596Z,101950.86
2018-10-03T18:13:11.266Z,101949.19
2018-10-03T18:15:41.098Z,101946.20
2018-10-03T18:18:09.774Z,101942.92
2018-10-03T18:20:44.974Z,101941.09
2018-10-03T18:23:13.646Z,101940.05
2018-10-03T18:25:42.321Z,101939.22
2018-10-03T18:28:11.090Z,101932.73
2018-10-03T18:30:39.945Z,101943.77
2018-10-03T18:33:08.836Z,101948.34
2018-10-03T18:35:37.496Z,101949.91
2018-10-03T18:38:06.116Z,101948.19
2018-10-03T18:40:34.860Z,101960.59
2018-10-03T18:43:03.400Z,101948.38
2018-10-03T18:45:32.161Z,101941.06
2018-10-03T18:48:00.807Z,101947.10
2018-10-03T18:50:29.354Z,101945.78
2018-10-03T18:52:58.092Z,101936.95
2018-10-03T18:55:26.652Z,101935.06
2018-10-03T18:57:56.059Z,101932.94
2018-10-03T19:00:24.781Z,101938.75
2018-10-03T19:02:53.421Z,101941.55
2018-10-03T19:05:22.247Z,101941.54
2018-10-03T19:07:50.936Z,101939.08
2018-10-03T19:10:19.523Z,101943.19
2018-10-03T19:12:48.030Z,101947.20
2018-10-03T19:15:16.589Z,101938.50
2018-10-03T19:17:45.060Z,101947.05
2018-10-03T19:20:13.741Z,101947.34
2018-10-03T19:22:42.334Z,101955.06
2018-10-03T19:25:10.809Z,101953.58
2018-10-03T19:27:39.331Z,101954.95
2018-10-03T19:30:07.818Z,101957.59
2018-10-03T19:32:36.306Z,101946.30
2018-10-03T19:35:05.141Z,101951.59
2018-10-03T19:37:33.653Z,101955.44
2018-10-03T19:40:02.213Z,101959.46
2018-10-03T19:42:30.813Z,101962.67
2018-10-03T19:44:59.294Z,101960.14
2018-10-03T19:47:28.581Z,101968.95
2018-10-03T19:49:57.145Z,101964.89
2018-10-03T19:52:25.913Z,101960.88
2018-10-03T19:54:54.445Z,101967.25
2018-10-03T19:57:23.032Z,101965.34
2018-10-03T19:59:51.558Z,101965.42
2018-10-03T20:02:20.110Z,101970.08
2018-10-03T20:04:48.647Z,101974.88
2018-10-03T20:07:17.207Z,101974.56
2018-10-03T20:09:45.675Z,101975.13
2018-10-03T20:12:14.214Z,101967.56
2018-10-03T20:14:42.775Z,101969.41
2018-10-03T20:17:11.246Z,101970.20
2018-10-03T20:19:39.809Z,101972.05
2018-10-03T20:22:11.256Z,101971.20
2018-10-03T20:24:40.221Z,101970.53
2018-10-03T20:27:09.116Z,101969.56
2018-10-03T20:29:37.693Z,101969.00
2018-10-03T20:32:06.194Z,101978.48
2018-10-03T20:34:34.738Z,101971.94
2018-10-03T20:37:03.515Z,101980.52
2018-10-03T20:39:31.989Z,101980.25
2018-10-03T20:42:00.466Z,101977.56
2018-10-03T20:44:29.100Z,101978.98
2018-10-03T20:46:57.593Z,101975.55
2018-10-03T20:49:26.121Z,101980.34
2018-10-03T20:51:54.641Z,101977.98
2018-10-03T20:54:23.222Z,101978.56
2018-10-03T20:56:51.680Z,101977.35
2018-10-03T20:59:20.234Z,101970.27
2018-10-03T21:01:48.744Z,101977.69
2018-10-03T21:04:17.250Z,101978.61
2018-10-03T21:06:45.792Z,101974.77
2018-10-03T21:09:14.269Z,101980.66
2018-10-03T21:11:42.731Z,101979.13
2018-10-03T21:14:11.547Z,101983.34
2018-10-03T21:16:40.022Z,101983.09
2018-10-03T21:19:08.556Z,101978.58
2018-10-03T21:21:37.131Z,101982.41
2018-10-03T21:24:05.651Z,101981.26
2018-10-03T21:26:34.223Z,101979.45
2018-10-03T21:29:02.720Z,101975.13
2018-10-03T21:31:31.211Z,101973.16
2018-10-03T21:33:59.712Z,101973.00
2018-10-03T21:36:28.205Z,101976.97
2018-10-03T21:38:56.788Z,101969.89
2018-10-03T21:41:25.261Z,101971.69
2018-10-03T21:43:53.836Z,101977.49
2018-10-03T21:46:22.333Z,101969.13
2018-10-03T21:48:50.929Z,101969.96
2018-10-03T21:51:19.510Z,101972.05
2018-10-03T21:53:48.026Z,101974.61
2018-10-03T21:56:16.538Z,101970.36
2018-10-03T21:58:45.021Z,101973.16
2018-10-03T22:01:13.498Z,101972.84
2018-10-03T22:03:41.997Z,101975.86
2018-10-03T22:06:10.567Z,101970.48
2018-10-03T22:08:39.033Z,101968.84
2018-10-03T22:11:07.549Z,101969.03
2018-10-03T22:13:36.017Z,101965.77
2018-10-03T22:16:04.573Z,101961.33
2018-10-03T22:18:33.122Z,101956.68
2018-10-03T22:21:01.586Z,101963.13
2018-10-03T22:23:30.081Z,101963.13
2018-10-03T22:25:58.714Z,101969.91
2018-10-03T22:28:27.241Z,101965.97
2018-10-03T22:30:55.761Z,101959.03
2018-10-03T22:33:24.293Z,101962.03
2018-10-03T22:35:53.533Z,101962.55
2018-10-03T22:38:22.087Z,101964.86
2018-10-03T22:40:50.633Z,101961.70
2018-10-03T22:43:19.097Z,101959.05
2018-10-03T22:45:47.690Z,101957.60
2018-10-03T22:48:16.225Z,101956.63
2018-10-03T22:50:44.755Z,101955.47
2018-10-03T22:53:13.238Z,101954.14
2018-10-03T22:55:41.769Z,101950.34
2018-10-03T22:58:10.295Z,101956.30
2018-10-03T23:00:38.844Z,101960.27
2018-10-03T23:03:08.161Z,101954.17
2018-10-03T23:05:36.724Z,101950.20
2018-10-03T23:08:05.427Z,101949.03
2018-10-03T23:10:33.899Z,101947.23
2018-10-03T23:13:02.388Z,101951.84
2018-10-03T23:15:30.843Z,101952.01
2018-10-03T23:17:59.369Z,101951.04
2018-10-03T23:20:27.961Z,101952.22
2018-10-03T23:22:56.513Z,101960.80
2018-10-03T23:25:25.078Z,101957.19
2018-10-03T23:27:53.593Z,101950.08
2018-10-03T23:30:22.105Z,101954.86
2018-10-03T23:32:57.298Z,101962.47
2018-10-03T23:35:25.763Z,101950.91
2018-10-03T23:37:54.277Z,101954.70
2018-10-03T23:40:22.877Z,101950.91
2018-10-03T23:42:51.365Z,101953.70
2018-10-03T23:45:19.827Z,101959.16
2018-10-03T23:47:48.326Z,101957.95
2018-10-03T23:50:16.838Z,101958.41
2018-10-03T23:52:45.530Z,101951.63
2018-10-03T23:55:14.029Z,101950.66
2018-10-03T23:57:42.571Z,101952.16
